Terminal Aerodrome Forecast
Issued by NWS

Home | Current Version | Previous Version | Text Only | Print | Product List | Glossary On
Versions: 1 2 3 4 5 6 7 8 9 10 11 12 13 14 15 16 17
000
FTUS45 KRIW 221628 AAA
TAFBPI
TAF AMD
KBPI 221628Z 2216/2312 VRB05KT P6SM VCSH SCT025 BKN050
      TEMPO 2216/2219 5SM -SHRA BKN025
     FM230000 VRB05KT P6SM -SHRA BKN050
     FM230500 VRB05KT 5SM -RASN BKN026
     FM231000 34005KT 3SM -SN OVC018=

USA.gov is the U.S. government's official web portal to all federal, state and local government web resources and services.